Latest Weather Observations for Maatsuyker Island

IDT60801

Issued at 4:35 am EST Friday 25 April 2014 (issued every 30 minutes, with the page automatically refreshed every 10 minutes)

About weather observations | Map of weather stations | Latest weather observations for TAS | Other Formats
Station Details ID: 094041 Name: MAATSUYKER ISLAND LIGHTHOUSE Lat: -43.66 Lon: 146.27 Height: 146.5 m
Data from the previous 72 hours. | See also: Recent months at Maatsuyker Island
Date/Time
EST
Temp
°C
App
Temp
°C
Dew
Point
Rel
Hum
%
Delta-T
°C
Wind Press
QNH
hPa
Press
MSL
hPa
Rain
since 9 am
mm
Dir
 
Spd
km/h
Gust
km/h
Spd
kts
Gust
kts
25/04:30am 9.2 0.8 5.5 78 1.7 NNW 39 50 21 27 1015.7 - 0.4
25/04:00am 9.3 1.3 5.6 78 1.7 NNW 37 50 20 27 1015.7 - 0.4
25/03:30am 9.1 1.3 5.1 76 1.8 NNW 35 46 19 25 1015.6 - 0.4
25/03:00am 9.2 1.5 5.2 76 1.8 NNW 35 44 19 24 1015.7 1015.8 0.4
25/02:30am 9.0 1.3 5.2 77 1.7 NNW 35 46 19 25 1015.9 - 0.4
25/02:00am 9.1 1.5 5.6 79 1.6 NNW 35 46 19 25 1015.8 - 0.4
25/01:30am 9.3 1.4 4.6 72 2.1 NNW 35 46 19 25 1015.9 - 0.4
25/01:09am 9.8 0.4 4.7 70 2.3 NNW 43 61 23 33 1015.8 - 0.4
25/01:00am 10.5 -1.4 2.1 56 3.6 NNW 54 63 29 34 1015.4 - 0.4
25/12:30am 10.6 -2.2 2.5 57 3.5 NW 59 69 32 37 1015.3 - 0.4
25/12:00am 10.6 -3.0 2.2 56 3.6 NW 63 70 34 38 1014.7 1014.7 0.4
 
Date/Time
EST
Temp
°C
App
Temp
°C
Dew
Point
Rel
Hum
%
Delta-T
°C
Wind Press
QNH
hPa
Press
MSL
hPa
Rain
since 9 am
mm
Dir
 
Spd
km/h
Gust
km/h
Spd
kts
Gust
kts
24/11:30pm 10.5 -2.6 2.9 59 3.3 NW 61 69 33 37 1014.9 - 0.4
24/11:00pm 10.4 -2.5 1.9 55 3.6 NW 59 67 32 36 1015.2 - 0.4
24/10:30pm 10.3 -2.6 1.8 55 3.6 NW 59 72 32 39 1015.2 - 0.4
24/10:00pm 10.4 -2.3 3.1 60 3.2 NW 59 69 32 37 1014.6 - 0.4
24/09:30pm 10.4 -1.9 3.3 61 3.1 NW 57 70 31 38 1014.5 - 0.4
24/09:00pm 10.0 -2.5 0.8 53 3.8 NW 56 65 30 35 1014.4 1014.4 0.4
24/08:30pm 10.0 -2.5 0.5 51 3.9 NW 56 65 30 35 1014.2 - 0.4
24/08:00pm 10.0 -2.5 1.1 54 3.7 WNW 56 63 30 34 1014.2 - 0.4
24/07:30pm 10.2 -2.2 1.7 55 3.6 WNW 56 63 30 34 1013.6 - 0.4
24/07:00pm 9.9 -2.5 1.3 55 3.6 WNW 56 65 30 35 1013.5 - 0.4
24/06:30pm 9.7 -1.4 -0.3 49 4.0 WNW 48 61 26 33 1013.6 - 0.4
24/06:28pm 9.7 -1.4 -0.3 49 4.0 WNW 48 65 26 35 1013.5 - 0.4
24/06:00pm 9.8 -4.4 2.9 62 3.0 NW 67 76 36 41 1012.1 1012.1 0.4
24/05:30pm 9.2 -5.2 1.8 60 3.1 WNW 67 76 36 41 1012.0 - 0.4
24/05:13pm 9.0 -5.1 1.6 60 3.1 WNW 65 83 35 45 1011.5 - 0.4
24/05:00pm 8.3 -4.8 3.2 70 2.2 WNW 61 74 33 40 1011.8 - 0.4
24/04:50pm 7.8 -4.1 4.1 77 1.6 W 56 76 30 41 1011.9 - 0.4
24/04:41pm 8.3 -3.3 4.0 74 1.9 W 54 85 29 46 1011.8 - 0.4
24/04:30pm 8.7 -7.2 3.4 69 2.3 NW 76 87 41 47 1010.1 - 0.4
24/04:05pm 7.9 -7.1 4.0 76 1.7 NW 72 96 39 52 1010.6 - 0.2
24/04:00pm 9.1 -5.6 3.4 67 2.5 NW 70 83 38 45 1009.1 - 0.2
24/03:35pm 9.4 -3.3 5.2 75 1.9 WNW 61 85 33 46 1008.8 - 0.0
24/03:30pm 8.3 -4.6 4.2 75 1.8 WNW 61 76 33 41 1009.6 - 0.0
24/03:00pm 9.8 -3.5 2.0 58 3.3 WNW 61 89 33 48 1008.0 1008.0 0.0
24/02:35pm 10.0 -5.6 0.5 51 3.9 WNW 72 85 39 46 1008.4 - 0.0
24/02:30pm 9.7 -1.8 0.1 51 3.9 W 50 74 27 40 1008.8 - 0.0
24/02:29pm 9.9 -0.9 1.9 57 3.4 W 48 74 26 40 1008.8 - 0.0
24/02:22pm 9.8 0.1 3.7 66 2.7 W 44 78 24 42 1009.0 - 0.0
24/02:00pm 10.0 -5.9 0.8 53 3.8 NW 74 87 40 47 1007.5 - 0.0
24/01:30pm 9.6 -5.4 2.1 59 3.2 WNW 70 87 38 47 1006.8 - 0.0
24/01:18pm 9.6 -4.9 1.5 57 3.4 WNW 67 85 36 46 1007.1 - 0.0
24/01:01pm 7.3 -5.1 2.5 71 2.0 W 57 100 31 54 1008.2 - 0.0
24/01:00pm 7.1 -5.7 2.6 73 1.9 W 59 109 32 59 1008.2 - 0.0
24/12:58pm 7.0 -5.3 3.2 77 1.6 W 57 109 31 59 1008.1 - 0.0
24/12:57pm 7.1 -6.0 3.1 76 1.7 W 61 109 33 59 1008.2 - 0.0
24/12:55pm 7.4 -9.8 3.2 75 1.8 WNW 83 109 45 59 1007.9 - 0.0
24/12:51pm 9.5 -9.3 3.1 64 2.8 NW 91 109 49 59 1005.8 - 0.0
24/12:34pm 9.5 -4.9 2.2 60 3.1 WNW 67 91 36 49 1005.7 - 0.0
24/12:30pm 9.6 -4.7 0.0 51 3.9 WNW 65 80 35 43 1006.3 - 0.0
24/12:10pm 9.9 -5.0 1.3 55 3.6 WNW 69 87 37 47 1006.2 - 0.0
24/12:00pm 9.7 -6.5 1.3 56 3.5 WNW 76 93 41 50 1006.0 1006.0 0.0
24/11:41am 9.4 -6.2 0.6 54 3.6 WNW 72 91 39 49 1006.2 - 0.0
24/11:30am 9.5 -7.0 2.0 59 3.2 WNW 78 89 42 48 1005.4 - 0.0
24/11:02am 9.9 -6.3 1.6 56 3.5 WNW 76 95 41 51 1004.9 - 0.0
24/11:01am 9.9 -2.0 1.9 57 3.4 W 54 95 29 51 1004.9 - 0.0
24/11:00am 9.8 -1.6 2.9 62 3.0 W 52 72 28 39 1005.3 - 0.0
24/10:51am 9.0 -1.9 3.3 67 2.5 W 50 93 27 50 1005.7 - 0.0
24/10:39am 9.7 -6.5 1.7 57 3.4 WNW 76 96 41 52 1003.7 - 0.0
24/10:30am 9.3 -6.9 1.4 58 3.3 WNW 76 89 41 48 1004.6 - 0.0
24/10:00am 9.2 -5.1 2.4 62 2.9 WNW 67 76 36 41 1004.0 - 0.0
24/09:31am 8.9 -3.3 2.6 64 2.7 WNW 56 74 30 40 1003.9 - 0.0
24/09:30am 8.8 -3.4 2.5 64 2.7 WNW 56 65 30 35 1004.0 - 0.0
24/09:14am 7.9 -4.8 3.0 71 2.1 W 59 78 32 42 1004.2 - 0.0
24/09:00am 9.3 -2.9 2.6 63 2.9 WNW 56 80 30 43 1003.0 1002.9 12.2
24/08:30am 9.6 -4.6 3.2 64 2.8 WNW 67 82 36 44 1002.1 - 12.2
24/08:00am 8.4 -5.2 2.3 65 2.6 WNW 63 78 34 42 1001.6 - 12.2
24/07:34am 9.3 -3.7 3.4 66 2.6 WNW 61 80 33 43 1001.0 - 12.2
24/07:30am 9.4 -4.3 3.8 68 2.5 WNW 65 80 35 43 1000.9 - 12.2
24/07:00am 9.0 -4.6 4.3 72 2.1 WNW 65 78 35 42 1000.6 - 12.2
24/06:42am 8.7 -3.3 4.5 75 1.9 WNW 57 100 31 54 1000.5 - 12.2
24/06:33am 9.7 -7.2 4.1 68 2.5 WNW 82 100 44 54 999.1 - 12.2
24/06:30am 9.5 -7.3 2.5 61 3.0 WNW 80 89 43 48 999.1 - 12.2
24/06:02am 9.6 -4.7 4.5 70 2.3 WNW 69 87 37 47 999.7 - 12.0
24/06:00am 9.7 -2.1 4.6 70 2.3 WNW 56 87 30 47 999.6 999.6 12.0
24/05:45am 9.7 -4.5 5.1 73 2.1 WNW 69 87 37 47 999.1 - 12.0
24/05:30am 9.8 -4.4 5.0 72 2.2 WNW 69 82 37 44 998.8 - 12.0
24/05:12am 9.7 -3.7 7.2 84 1.2 WNW 67 91 36 49 998.5 - 12.0
24/05:00am 9.5 -3.8 7.4 87 1.0 NW 67 82 36 44 998.2 - 12.0
24/04:47am 9.9 -5.1 7.6 85 1.1 NW 76 100 41 54 997.5 - 11.6
24/04:45am 10.4 -3.8 7.7 83 1.3 NW 72 83 39 45 997.7 - 11.6
24/04:30am 10.1 0.6 8.3 88 0.9 NNW 48 70 26 38 997.7 - 11.2
24/04:23am 9.8 1.0 8.0 88 0.9 NNW 44 74 24 40 997.5 - 11.0
24/04:01am 10.3 -2.5 7.9 85 1.2 NNW 65 83 35 45 996.6 - 10.0
24/04:00am 10.5 -2.8 7.6 82 1.4 NNW 67 83 36 45 996.9 - 10.0
24/03:53am 10.1 -3.9 8.5 90 0.8 NW 72 83 39 45 996.3 - 9.8
24/03:35am 10.0 0.8 8.2 88 0.9 NNW 46 65 25 35 997.0 - 8.6
24/03:30am 10.2 0.5 7.5 83 1.3 NNW 48 65 26 35 997.0 - 8.6
24/03:20am 10.0 -1.9 8.6 91 0.7 NNW 61 80 33 43 997.2 - 8.4
24/03:00am 9.7 -3.7 8.5 92 0.6 NW 69 78 37 42 996.6 996.5 7.2
24/02:46am 9.7 -3.7 8.7 93 0.5 NW 69 85 37 46 996.5 - 6.8
24/02:33am 9.7 -7.4 9.1 96 0.3 NW 89 107 48 58 996.2 - 6.0
24/02:30am 9.5 -8.5 8.7 95 0.4 NW 93 107 50 58 995.6 - 6.0
24/02:19am 8.5 -10.8 8.5 100 0.0 NW 100 119 54 64 995.7 - 5.2
24/02:18am 9.3 -1.7 9.3 100 0.0 NNW 57 119 31 64 996.4 - 4.4
24/02:00am 12.1 2.8 10.4 89 0.9 NNW 50 74 27 40 996.0 - 2.8
24/01:45am 12.1 3.2 10.6 90 0.8 NNW 48 67 26 36 996.5 - 2.4
24/01:30am 11.9 3.4 10.6 92 0.7 NNW 46 59 25 32 997.0 - 1.2
24/01:00am 12.3 4.2 10.0 86 1.2 N 43 61 23 33 997.8 - 0.4
24/12:39am 12.1 3.8 10.0 87 1.1 N 44 63 24 34 998.2 - 0.4
24/12:30am 12.2 3.5 9.9 86 1.2 NNW 46 63 25 34 998.2 - 0.4
24/12:26am 12.1 3.5 10.2 88 1.0 NNW 46 65 25 35 998.6 - 0.4
24/12:00am 12.3 3.6 10.0 86 1.2 NNW 46 63 25 34 999.1 999.1 0.2
 
Date/Time
EST
Temp
°C
App
Temp
°C
Dew
Point
Rel
Hum
%
Delta-T
°C
Wind Press
QNH
hPa
Press
MSL
hPa
Rain
since 9 am
mm
Dir
 
Spd
km/h
Gust
km/h
Spd
kts
Gust
kts
23/11:31pm 12.2 3.1 9.7 85 1.3 NNW 48 67 26 36 999.6 - 0.2
23/11:30pm 12.2 2.7 9.9 86 1.2 NNW 50 67 27 36 999.4 - 0.2
23/11:04pm 12.3 2.3 9.4 82 1.5 NNW 52 70 28 38 1000.2 - 0.2
23/11:00pm 12.4 2.0 9.3 81 1.6 NNW 54 70 29 38 1000.2 - 0.2
23/10:30pm 13.2 3.7 8.2 71 2.5 NNW 48 70 26 38 1000.6 - 0.0
23/10:23pm 13.2 4.4 8.2 71 2.5 NNW 44 63 24 34 1001.0 - 0.0
23/10:00pm 13.2 4.4 8.0 71 2.6 NNW 44 59 24 32 1001.4 - 0.0
23/09:35pm 13.1 5.3 8.1 71 2.5 NNW 39 61 21 33 1002.3 - 0.0
23/09:30pm 13.2 5.0 8.2 71 2.5 NNW 41 56 22 30 1002.6 - 0.0
23/09:09pm 13.1 5.0 7.2 67 2.9 NNW 39 57 21 31 1002.9 - 0.0
23/09:00pm 13.1 4.8 7.7 70 2.7 NNW 41 57 22 31 1003.0 1002.9 0.0
23/08:30pm 13.1 5.9 7.7 70 2.7 NNW 35 54 19 29 1003.5 - 0.0
23/08:00pm 13.1 5.5 7.4 68 2.8 NNW 37 54 20 29 1003.9 - 0.0
23/07:30pm 12.9 6.2 7.2 68 2.8 NNW 32 46 17 25 1004.6 - 0.0
23/07:00pm 13.2 5.9 7.1 66 3.0 NNW 35 48 19 26 1004.8 - 0.0
23/06:30pm 13.1 5.4 7.2 67 2.9 NNW 37 54 20 29 1005.1 - 0.0
23/06:00pm 13.1 4.7 7.4 68 2.8 NNW 41 56 22 30 1005.2 1005.2 0.0
23/05:37pm 13.0 4.8 8.0 71 2.5 NNW 41 59 22 32 1005.3 - 0.0
23/05:30pm 13.0 5.9 8.2 72 2.4 NNW 35 48 19 26 1005.6 - 0.0
23/05:00pm 13.0 5.9 8.2 72 2.4 NNW 35 46 19 25 1005.8 - 0.0
23/04:30pm 13.3 5.8 7.9 70 2.7 NNW 37 56 20 30 1006.2 - 0.0
23/04:03pm 12.8 6.1 8.0 72 2.4 NNW 33 52 18 28 1006.7 - 0.0
23/04:00pm 12.8 6.1 8.2 73 2.3 NNW 33 50 18 27 1006.6 - 0.0
23/03:30pm 13.3 6.6 8.3 72 2.5 NNW 33 46 18 25 1007.0 - 0.0
23/03:00pm 13.8 9.1 7.6 66 3.1 NNW 22 44 12 24 1007.2 1007.2 0.0
23/02:42pm 13.5 5.7 6.7 63 3.3 NNW 37 56 20 30 1007.1 - 0.0
23/02:30pm 13.7 6.8 7.2 65 3.2 NNW 33 46 18 25 1007.4 - 0.0
23/02:00pm 13.6 6.7 7.3 65 3.1 NNW 33 48 18 26 1007.8 - 0.0
23/01:30pm 13.5 6.2 7.2 65 3.1 NNW 35 46 19 25 1008.3 - 0.0
23/01:00pm 13.2 4.6 6.6 64 3.2 NNW 41 52 22 28 1008.5 - 0.0
23/12:30pm 13.0 6.1 7.3 68 2.8 NNW 33 43 18 23 1009.3 - 0.0
23/12:13pm 13.1 5.7 6.7 65 3.1 NNW 35 54 19 29 1009.4 - 0.0
23/12:00pm 12.9 5.9 6.7 66 3.0 NNW 33 48 18 26 1009.5 1009.5 0.0
23/11:30am 12.5 5.5 6.7 68 2.8 NNW 33 46 18 25 1010.0 - 0.0
23/11:00am 12.4 5.0 6.6 68 2.8 NNW 35 48 19 26 1010.3 - 0.0
23/10:30am 12.3 4.9 6.7 68 2.7 NNW 35 44 19 24 1010.6 - 0.0
23/10:00am 12.0 5.1 7.3 73 2.3 NNW 33 46 18 25 1011.0 - 0.0
23/09:30am 11.4 4.4 7.0 74 2.1 NNW 33 41 18 22 1011.2 - 0.0
23/09:00am 11.0 6.8 7.3 78 1.8 NNW 19 41 10 22 1011.5 1011.5 0.4
23/08:30am 10.6 3.8 7.1 79 1.7 NNW 32 41 17 22 1011.8 - 0.4
23/08:00am 10.8 4.4 7.0 77 1.8 NNW 30 41 16 22 1011.9 - 0.4
23/07:30am 10.6 3.5 6.6 76 1.9 NNW 33 43 18 23 1011.7 - 0.4
23/07:00am 10.8 3.8 6.1 73 2.2 NNW 32 43 17 23 1011.6 - 0.4
23/06:30am 10.7 3.8 6.5 75 2.0 NNW 32 39 17 21 1011.8 - 0.4
23/06:00am 10.8 6.5 6.8 76 1.9 NNW 19 35 10 19 1011.9 1011.9 0.4
23/05:30am 10.7 4.5 6.2 74 2.1 NNW 28 37 15 20 1012.0 - 0.4
23/05:00am 11.5 2.5 4.5 62 3.2 NNW 41 50 22 27 1011.9 - 0.4
23/04:30am 11.5 2.5 4.5 62 3.2 NNW 41 48 22 26 1011.8 - 0.4
23/04:00am 11.4 0.2 4.1 61 3.3 NW 52 59 28 32 1011.6 - 0.4
23/03:30am 11.3 -0.2 4.2 61 3.2 NW 54 63 29 34 1011.5 - 0.4
23/03:00am 11.1 -1.4 4.0 61 3.2 NW 59 67 32 36 1011.6 1011.6 0.4
23/02:30am 10.9 -1.2 4.3 64 3.0 NW 57 67 31 36 1011.7 - 0.4
23/02:00am 11.0 -1.9 4.1 62 3.1 NW 61 72 33 39 1011.5 - 0.4
23/01:30am 11.3 -1.8 5.0 65 2.9 NW 63 72 34 39 1011.4 - 0.4
23/01:00am 11.4 -0.4 5.6 67 2.7 NW 57 67 31 36 1011.4 - 0.4
23/12:30am 11.3 -2.6 4.5 63 3.1 NW 67 80 36 43 1011.3 - 0.4
23/12:00am 11.5 -2.2 5.5 66 2.8 NW 67 74 36 40 1011.1 1011.1 0.4
 
Date/Time
EST
Temp
°C
App
Temp
°C
Dew
Point
Rel
Hum
%
Delta-T
°C
Wind Press
QNH
hPa
Press
MSL
hPa
Rain
since 9 am
mm
Dir
 
Spd
km/h
Gust
km/h
Spd
kts
Gust
kts
22/11:30pm 11.5 -2.1 6.2 70 2.5 NW 67 74 36 40 1010.9 - 0.4
22/11:00pm 11.5 -2.3 7.2 75 2.1 NW 69 83 37 45 1010.6 - 0.4
22/10:30pm 10.5 -1.9 8.0 84 1.2 WNW 63 82 34 44 1011.3 - 0.2
22/10:28pm 11.0 -1.2 7.5 79 1.7 NW 61 82 33 44 1011.1 - 0.2
22/10:00pm 11.7 -0.9 7.2 74 2.2 NW 63 74 34 40 1010.8 - 0.2
22/09:30pm 11.6 -2.0 6.1 69 2.6 NW 67 80 36 43 1010.8 - 0.2
22/09:00pm 11.6 -1.9 6.6 71 2.4 NW 67 78 36 42 1010.4 1010.4 0.2
22/08:30pm 11.3 -1.4 8.5 83 1.4 NW 65 74 35 40 1010.2 - 0.2
22/08:00pm 10.2 -3.8 8.6 90 0.8 NW 72 82 39 44 1009.9 - 0.2
22/07:30pm 11.9 -2.0 7.4 74 2.2 NW 70 82 38 44 1009.4 - 0.2
22/07:00pm 11.8 -1.7 8.4 80 1.7 NW 69 80 37 43 1008.9 - 0.2
22/06:30pm 11.6 -4.2 7.3 75 2.1 NW 80 87 43 47 1008.7 - 0.2
22/06:00pm 12.3 -3.3 6.5 67 2.8 NW 78 87 42 47 1007.7 1007.7 0.2
22/05:30pm 12.3 -3.8 7.6 73 2.3 NW 82 93 44 50 1007.5 - 0.2
22/05:00pm 12.4 -3.5 6.8 68 2.7 NW 80 89 43 48 1006.5 - 0.2
22/04:30pm 12.4 -3.5 8.4 76 2.0 NNW 82 93 44 50 1006.4 - 0.2
22/04:07pm 11.5 -3.0 9.7 89 0.9 NNW 76 95 41 51 1006.6 - 0.2
22/04:00pm 11.5 -3.5 9.1 85 1.2 NNW 78 95 42 51 1005.6 - 0.0
22/03:55pm 12.4 -1.4 8.0 74 2.2 NNW 70 89 38 48 1006.3 - 0.0
22/03:30pm 13.3 0.0 7.4 67 2.9 NNW 67 83 36 45 1006.5 - 0.0
22/03:00pm 12.9 2.4 7.2 68 2.8 NW 52 83 28 45 1006.1 1006.1 0.0
22/02:30pm 12.7 -1.2 7.4 70 2.6 NNW 70 87 38 47 1006.0 - 0.0
22/02:00pm 12.7 -2.0 7.4 70 2.6 NW 74 87 40 47 1005.7 - 0.0
22/01:30pm 12.8 -0.4 7.8 71 2.5 NW 67 80 36 43 1006.1 - 0.0
22/01:00pm 12.4 -2.1 6.4 67 2.9 NW 72 83 39 45 1006.2 - 0.0
22/12:30pm 12.6 -2.2 6.8 68 2.8 NW 74 82 40 44 1005.9 - 0.0
22/12:00pm 12.5 -1.4 6.7 68 2.8 NW 69 80 37 43 1006.0 1006.0 0.0
22/11:30am 12.4 -2.0 6.8 68 2.7 NW 72 78 39 42 1006.0 - 0.0
22/11:00am 12.1 -2.0 6.7 69 2.6 NW 70 82 38 44 1006.0 - 0.0
22/10:30am 11.9 -2.0 7.2 73 2.3 NW 70 82 38 44 1005.6 - 0.0
22/10:00am 12.1 -1.9 8.7 80 1.7 NW 72 80 39 43 1005.2 - 0.0
22/09:30am 11.9 -2.5 9.8 87 1.1 NW 76 85 41 46 1004.6 - 0.0
22/09:00am 12.3 2.9 11.4 94 0.5 NW 52 87 28 47 1003.7 1003.7 11.2
22/08:30am 13.2 0.3 11.3 88 1.0 NNW 70 80 38 43 1002.9 - 11.2
22/08:00am 13.4 0.5 11.2 86 1.2 NW 70 80 38 43 1002.9 - 11.2
22/07:30am 13.3 0.3 10.9 85 1.3 NW 70 76 38 41 1002.5 - 11.2
22/07:00am 13.3 1.3 10.9 85 1.3 NW 65 78 35 42 1002.0 - 11.2
22/06:30am 13.4 1.1 11.2 86 1.2 NW 67 78 36 42 1001.9 - 11.2
22/06:00am 13.3 3.8 11.2 87 1.1 NW 52 78 28 42 1001.7 1001.7 11.2
22/05:30am 13.4 1.9 11.5 88 1.0 NNW 63 80 34 43 1001.7 - 11.2
22/05:23am 13.4 2.4 11.9 91 0.8 NNW 61 80 33 43 1001.4 - 11.2
22/05:00am 13.3 3.8 12.4 94 0.5 NNW 54 65 29 35 1001.4 - 11.2

Other Formats:

Comma delimited format used in spreadsheet applications
http://www.bom.gov.au/fwo/IDT60801/IDT60801.94962.axf

JavaScript Object Notation format (JSON) in row-major order
http://www.bom.gov.au/fwo/IDT60801/IDT60801.94962.json